Time;durP1;ratioP1;P1;durP2;ratioP2;P2;SDS_P1;SDS_P2;PMS_P1;PMS_P2;Temp;Humidity;BMP_temperature;BMP_pressure;BME280_temperature;BME280_humidity;BME280_pressure;Samples;Min_cycle;Max_cycle;Signal;HPM_P1;HPM_P2
2021/01/16 00:00:24;;;;;;;5.43;2.92;;;-1.30;99.90;;;;;;5144087;27;20220;-82
2021/01/16 00:02:50;;;;;;;3.10;2.85;;;-1.30;99.90;;;;;;5140886;27;20228;-82
2021/01/16 00:05:18;;;;;;;3.28;2.92;;;-1.40;99.90;;;;;;5141574;27;20260;-82
2021/01/16 00:07:46;;;;;;;2.17;1.92;;;-1.30;99.90;;;;;;5139683;27;20220;-82
2021/01/16 00:10:14;;;;;;;3.30;2.50;;;-1.30;99.90;;;;;;5141253;27;20740;-82
2021/01/16 00:12:41;;;;;;;3.15;2.55;;;-1.40;99.90;;;;;;5142852;27;20285;-81
2021/01/16 00:15:10;;;;;;;2.30;2.10;;;-1.30;99.90;;;;;;5140020;27;20291;-82
2021/01/16 00:17:37;;;;;;;4.30;2.45;;;-1.40;99.90;;;;;;5140432;27;20323;-82
2021/01/16 00:20:05;;;;;;;2.10;1.90;;;-1.30;99.90;;;;;;5139501;27;20272;-82
2021/01/16 00:22:31;;;;;;;3.38;3.10;;;-1.40;99.90;;;;;;5138272;27;20208;-81
2021/01/16 00:24:58;;;;;;;3.38;2.10;;;-1.30;99.90;;;;;;5137214;27;20596;-82
2021/01/16 00:27:26;;;;;;;3.28;2.47;;;-1.40;99.90;;;;;;5141846;28;20205;-82
2021/01/16 00:29:55;;;;;;;3.42;3.13;;;-1.40;99.90;;;;;;5140563;28;20214;-80
2021/01/16 00:32:22;;;;;;;5.88;3.63;;;-1.40;99.90;;;;;;5139033;28;20207;-81
2021/01/16 00:34:48;;;;;;;3.40;3.10;;;-1.50;99.90;;;;;;5138733;28;20220;-80
2021/01/16 00:37:15;;;;;;;6.10;2.92;;;-1.60;99.90;;;;;;5140581;28;20240;-81
2021/01/16 00:39:41;;;;;;;3.03;2.78;;;-1.50;99.90;;;;;;5141483;27;20208;-82
2021/01/16 00:42:07;;;;;;;4.53;3.20;;;-1.40;99.90;;;;;;5148936;27;20298;-79
2021/01/16 00:44:34;;;;;;;5.72;3.42;;;-1.50;99.90;;;;;;5148557;27;20245;-79
2021/01/16 00:47:00;;;;;;;3.17;2.97;;;-1.50;99.90;;;;;;5147964;27;20260;-81
2021/01/16 00:49:27;;;;;;;4.75;3.25;;;-1.40;99.90;;;;;;5146797;27;20731;-80
2021/01/16 00:51:53;;;;;;;3.45;3.08;;;-1.30;99.90;;;;;;5141604;27;20210;-81
2021/01/16 00:54:20;;;;;;;5.63;3.90;;;-1.30;99.90;;;;;;5140343;27;20792;-81
2021/01/16 00:56:46;;;;;;;2.85;2.65;;;-1.30;99.90;;;;;;5140410;27;20268;-82
2021/01/16 00:59:12;;;;;;;3.70;3.22;;;-1.30;99.90;;;;;;5139651;27;20272;-81
2021/01/16 01:01:39;;;;;;;3.10;2.78;;;-1.20;99.90;;;;;;5139765;27;20579;-81
2021/01/16 01:04:08;;;;;;;3.20;2.90;;;-1.20;99.90;;;;;;5140387;27;20224;-82
2021/01/16 01:06:35;;;;;;;3.30;2.97;;;-1.20;99.90;;;;;;5140933;27;20200;-81
2021/01/16 01:09:02;;;;;;;7.38;3.63;;;-1.30;99.90;;;;;;5140911;27;20220;-82
2021/01/16 01:11:28;;;;;;;3.42;3.05;;;-1.30;99.90;;;;;;5140223;27;20638;-81
2021/01/16 01:13:54;;;;;;;6.18;4.15;;;-1.30;99.90;;;;;;5141086;27;20220;-82
2021/01/16 01:16:21;;;;;;;4.40;4.00;;;-1.40;99.90;;;;;;5148830;27;20200;-79
2021/01/16 01:18:48;;;;;;;3.42;3.13;;;-1.40;99.90;;;;;;5150071;27;20207;-79
2021/01/16 01:21:15;;;;;;;3.22;2.90;;;-1.30;99.90;;;;;;5145626;27;20254;-81
2021/01/16 01:23:42;;;;;;;6.20;3.60;;;-1.40;99.90;;;;;;5143115;27;20272;-82
2021/01/16 01:26:08;;;;;;;3.70;3.28;;;-1.30;99.90;;;;;;5140857;27;20260;-82
2021/01/16 01:28:34;;;;;;;4.13;2.83;;;-1.10;99.90;;;;;;5140957;27;20200;-82
2021/01/16 01:31:01;;;;;;;4.10;3.15;;;-1.10;99.90;;;;;;5140294;27;20199;-82
2021/01/16 01:33:29;;;;;;;4.63;3.88;;;-1.10;99.90;;;;;;5140410;27;20595;-82
2021/01/16 01:35:55;;;;;;;4.20;3.80;;;-1.30;99.90;;;;;;5139855;27;20196;-81
2021/01/16 01:38:22;;;;;;;3.92;3.50;;;-1.30;99.90;;;;;;5139678;27;20224;-82
2021/01/16 01:40:49;;;;;;;5.40;3.80;;;-1.20;99.90;;;;;;5140438;27;20205;-82
2021/01/16 01:43:15;;;;;;;4.22;3.60;;;-1.20;99.90;;;;;;5143091;27;20225;-82
2021/01/16 01:45:42;;;;;;;4.43;3.75;;;-1.10;99.90;;;;;;5141173;27;20215;-82
2021/01/16 01:48:10;;;;;;;4.40;3.47;;;-1.10;99.90;;;;;;5140219;27;20197;-82
2021/01/16 01:50:36;;;;;;;6.45;3.45;;;-1.10;99.90;;;;;;5138829;27;20207;-82
2021/01/16 01:53:04;;;;;;;4.80;3.50;;;-1.10;99.90;;;;;;5140041;27;20588;-82
2021/01/16 01:55:30;;;;;;;7.43;4.57;;;-1.10;99.90;;;;;;5142280;27;20248;-81
2021/01/16 01:58:00;;;;;;;3.58;3.28;;;-1.10;99.90;;;;;;5142064;27;20224;-82
2021/01/16 02:00:27;;;;;;;4.18;3.42;;;-1.10;99.90;;;;;;5139952;27;20211;-82
2021/01/16 02:02:59;;;;;;;3.53;3.22;;;-1.00;99.90;;;;;;5140380;27;20228;-81
2021/01/16 02:05:25;;;;;;;6.05;4.57;;;-1.00;99.90;;;;;;5140242;27;20184;-82
2021/01/16 02:07:52;;;;;;;5.97;4.00;;;-1.00;99.90;;;;;;5141323;27;20287;-82
2021/01/16 02:10:22;;;;;;;4.15;3.75;;;-1.00;99.90;;;;;;5140882;27;20200;-81
2021/01/16 02:12:51;;;;;;;3.67;3.20;;;-1.00;99.90;;;;;;5140239;27;20256;-82
2021/01/16 02:15:33;;;;;;;4.30;4.00;;;-1.20;99.90;;;;;;5141525;27;20337;-82
2021/01/16 02:18:05;;;;;;;6.25;4.55;;;-1.20;99.90;;;;;;5141111;27;20291;-81
2021/01/16 02:20:35;;;;;;;5.32;4.25;;;-1.20;99.90;;;;;;5140761;27;20222;-82
2021/01/16 02:23:20;;;;;;;4.03;3.72;;;-1.10;99.90;;;;;;5141048;27;20220;-81
2021/01/16 02:26:06;;;;;;;5.80;4.32;;;-1.10;99.90;;;;;;5141267;27;20227;-82
2021/01/16 02:28:36;;;;;;;5.95;4.75;;;-1.20;99.90;;;;;;5142306;27;20220;-81
2021/01/16 02:31:04;;;;;;;4.70;4.00;;;-1.20;99.90;;;;;;5140144;27;20279;-81
2021/01/16 02:33:32;;;;;;;7.30;4.30;;;-1.20;99.90;;;;;;5139872;27;20649;-84
2021/01/16 02:36:04;;;;;;;7.40;4.63;;;-1.20;99.90;;;;;;5141016;27;20263;-81
2021/01/16 02:38:45;;;;;;;8.18;5.07;;;-1.20;99.90;;;;;;5141628;27;20236;-82
2021/01/16 02:41:27;;;;;;;5.57;4.30;;;-1.10;99.90;;;;;;5142152;27;20193;-81
2021/01/16 02:44:05;;;;;;;8.73;4.78;;;-1.10;99.90;;;;;;5142549;27;20254;-83
2021/01/16 02:46:38;;;;;;;9.18;4.68;;;-1.30;99.90;;;;;;5146772;27;20191;-82
2021/01/16 02:49:20;;;;;;;5.38;4.88;;;-1.20;99.90;;;;;;5146870;27;20189;-82
2021/01/16 02:52:00;;;;;;;5.68;4.60;;;-1.10;99.90;;;;;;5144411;27;20189;-80
2021/01/16 02:54:26;;;;;;;4.90;4.43;;;-1.20;99.90;;;;;;5143605;27;20315;-80
2021/01/16 02:56:53;;;;;;;4.45;3.90;;;-1.30;99.90;;;;;;5142720;27;20719;-81
2021/01/16 02:59:20;;;;;;;4.68;4.25;;;-1.30;99.90;;;;;;5140919;27;20200;-81
2021/01/16 03:01:47;;;;;;;5.60;4.75;;;-1.20;99.90;;;;;;5139150;27;20253;-81
2021/01/16 03:04:13;;;;;;;5.05;4.35;;;-1.30;99.90;;;;;;5137819;27;20633;-81
2021/01/16 03:06:46;;;;;;;4.95;3.85;;;-1.40;99.90;;;;;;5141387;27;20200;-81
2021/01/16 03:09:13;;;;;;;5.20;4.28;;;-1.40;99.90;;;;;;5141672;27;20245;-81
2021/01/16 03:11:41;;;;;;;5.55;4.78;;;-1.40;99.90;;;;;;5142846;27;20231;-81
2021/01/16 03:14:11;;;;;;;6.03;4.50;;;-1.30;99.90;;;;;;5141552;27;20271;-82
2021/01/16 03:16:51;;;;;;;4.60;4.20;;;-1.30;99.90;;;;;;5140973;27;20184;-82
2021/01/16 03:19:24;;;;;;;5.22;3.70;;;-1.40;99.90;;;;;;5146023;27;20318;-82
2021/01/16 03:21:50;;;;;;;4.70;4.30;;;-1.40;99.90;;;;;;5142280;27;20185;-83
2021/01/16 03:24:17;;;;;;;7.90;4.65;;;-1.30;99.90;;;;;;5141492;27;20223;-82
2021/01/16 03:26:43;;;;;;;5.40;4.85;;;-1.30;99.90;;;;;;5141821;27;20268;-81
2021/01/16 03:29:09;;;;;;;5.95;4.35;;;-1.20;99.90;;;;;;5140542;27;20217;-81
2021/01/16 03:31:36;;;;;;;5.70;4.60;;;-1.30;99.90;;;;;;5141073;27;20221;-82
2021/01/16 03:34:03;;;;;;;5.75;4.72;;;-1.30;99.90;;;;;;5141169;27;20232;-82
2021/01/16 03:36:29;;;;;;;4.75;4.15;;;-1.30;99.90;;;;;;5139533;27;20679;-83
2021/01/16 03:38:56;;;;;;;4.88;3.85;;;-1.30;99.90;;;;;;5139874;27;20220;-81
2021/01/16 03:41:23;;;;;;;4.75;4.35;;;-1.30;99.90;;;;;;5140149;27;20207;-82
2021/01/16 03:43:49;;;;;;;7.13;5.03;;;-1.30;99.90;;;;;;5141161;27;20315;-82
2021/01/16 03:46:15;;;;;;;5.03;4.53;;;-1.30;99.90;;;;;;5142984;27;20200;-81
2021/01/16 03:48:42;;;;;;;4.82;4.20;;;-1.40;99.90;;;;;;5148646;27;20204;-80
2021/01/16 03:51:09;;;;;;;5.13;4.63;;;-1.50;99.90;;;;;;5150572;27;20228;-80
2021/01/16 03:53:36;;;;;;;6.68;5.05;;;-1.50;99.90;;;;;;5164154;22;20227;-80
2021/01/16 03:56:02;;;;;;;6.85;4.90;;;-1.50;99.90;;;;;;5079713;28;20298;-80
2021/01/16 03:58:29;;;;;;;5.90;4.35;;;-1.50;99.90;;;;;;5079182;28;20225;-80
2021/01/16 04:00:55;;;;;;;5.88;4.90;;;-1.40;99.90;;;;;;5079627;28;20255;-81
2021/01/16 04:03:21;;;;;;;6.57;4.82;;;-1.50;99.90;;;;;;5077031;28;20726;-81
2021/01/16 04:05:48;;;;;;;6.90;4.70;;;-1.50;99.90;;;;;;5061171;28;20270;-81
2021/01/16 04:08:15;;;;;;;4.80;4.30;;;-1.50;99.90;;;;;;5061417;28;20199;-81
2021/01/16 04:10:41;;;;;;;4.97;4.22;;;-1.40;99.90;;;;;;5061018;28;20267;-80
2021/01/16 04:13:07;;;;;;;6.47;4.90;;;-1.40;99.90;;;;;;5061017;28;20234;-81
2021/01/16 04:15:34;;;;;;;5.25;4.38;;;-1.40;99.90;;;;;;5059498;28;20262;-79
2021/01/16 04:18:00;;;;;;;5.90;4.28;;;-1.50;99.90;;;;;;5061902;28;20230;-81
2021/01/16 04:20:26;;;;;;;6.07;4.75;;;-1.50;99.90;;;;;;5062666;28;20271;-80
2021/01/16 04:22:53;;;;;;;5.55;4.75;;;-1.50;99.90;;;;;;5059705;28;20239;-80
2021/01/16 04:25:20;;;;;;;5.65;4.95;;;-1.50;99.90;;;;;;5059494;28;20222;-80
2021/01/16 04:27:46;;;;;;;6.60;5.50;;;-1.50;99.90;;;;;;5058346;28;20286;-80
2021/01/16 04:30:14;;;;;;;5.93;4.88;;;-1.50;99.90;;;;;;5059369;28;20259;-79
2021/01/16 04:32:40;;;;;;;6.65;5.25;;;-1.50;99.90;;;;;;5059195;28;20270;-79
2021/01/16 04:35:08;;;;;;;5.80;4.82;;;-1.50;99.90;;;;;;5059422;28;20227;-80
2021/01/16 04:37:36;;;;;;;4.78;4.18;;;-1.40;99.90;;;;;;5059073;28;20214;-79
2021/01/16 04:40:02;;;;;;;6.93;4.53;;;-1.40;99.90;;;;;;5059595;28;20211;-79
2021/01/16 04:42:30;;;;;;;5.88;4.95;;;-1.50;99.90;;;;;;5059064;28;20262;-79
2021/01/16 04:44:59;;;;;;;5.57;4.93;;;-1.40;99.90;;;;;;5058170;28;20218;-79
2021/01/16 04:47:28;;;;;;;8.65;5.20;;;-1.40;99.90;;;;;;5061176;28;20194;-79
2021/01/16 04:49:58;;;;;;;7.95;5.35;;;-1.50;99.90;;;;;;5058725;28;20290;-80
2021/01/16 04:52:28;;;;;;;6.75;4.95;;;-1.50;99.90;;;;;;5059142;28;20203;-80
2021/01/16 04:54:55;;;;;;;6.03;5.45;;;-1.30;99.90;;;;;;5058174;28;20357;-79
2021/01/16 04:57:23;;;;;;;5.97;4.43;;;-1.40;99.90;;;;;;5059696;28;20856;-80
2021/01/16 04:59:51;;;;;;;7.43;4.95;;;-1.40;99.90;;;;;;5060670;28;20257;-79
2021/01/16 05:02:22;;;;;;;7.68;5.18;;;-1.40;99.90;;;;;;5060290;28;20207;-80
2021/01/16 05:04:50;;;;;;;7.82;5.90;;;-1.40;99.90;;;;;;5060808;28;20223;-80
2021/01/16 05:07:18;;;;;;;7.78;6.28;;;-1.40;99.90;;;;;;5059179;28;20290;-81
2021/01/16 05:09:46;;;;;;;6.93;5.20;;;-1.40;99.90;;;;;;5058165;28;20199;-80
2021/01/16 05:12:42;;;;;;;7.40;6.15;;;-1.40;99.90;;;;;;5058498;28;20695;-79
2021/01/16 05:15:21;;;;;;;6.45;5.82;;;-1.30;99.90;;;;;;5042714;28;20255;-80
2021/01/16 05:17:52;;;;;;;7.97;5.43;;;-1.40;99.90;;;;;;5058545;28;20733;-79
2021/01/16 05:20:19;;;;;;;7.68;5.15;;;-1.40;99.90;;;;;;5058631;28;20278;-80
2021/01/16 05:22:46;;;;;;;6.38;5.13;;;-1.40;99.90;;;;;;5058270;28;20233;-80
2021/01/16 05:25:13;;;;;;;8.95;6.75;;;-1.40;99.90;;;;;;5058725;28;20345;-79
2021/01/16 05:27:43;;;;;;;10.52;5.47;;;-1.30;99.90;;;;;;5060174;28;20199;-79
2021/01/16 05:30:12;;;;;;;6.90;5.10;;;-1.30;99.90;;;;;;5061415;28;20282;-80
2021/01/16 05:32:38;;;;;;;7.18;5.40;;;-1.20;99.90;;;;;;5062053;28;20203;-80
2021/01/16 05:35:18;;;;;;;8.63;6.43;;;-1.30;99.90;;;;;;5061721;28;20597;-79
2021/01/16 05:37:47;;;;;;;10.18;5.82;;;-1.30;99.90;;;;;;5061097;28;20227;-80
2021/01/16 05:40:14;;;;;;;7.07;5.60;;;-1.30;99.90;;;;;;5063495;28;20230;-79
2021/01/16 05:42:41;;;;;;;8.90;6.13;;;-1.20;99.90;;;;;;5063696;28;20216;-79
2021/01/16 05:45:09;;;;;;;7.10;6.00;;;-1.30;99.90;;;;;;5063333;28;20237;-79
2021/01/16 05:47:40;;;;;;;9.88;6.05;;;-1.30;99.90;;;;;;5070607;28;20284;-79
2021/01/16 05:50:09;;;;;;;6.15;4.95;;;-1.30;99.90;;;;;;5073534;28;20241;-79
2021/01/16 05:52:36;;;;;;;8.55;5.90;;;-1.20;99.90;;;;;;5068188;28;20285;-80
2021/01/16 05:55:06;;;;;;;7.85;6.05;;;-1.10;99.90;;;;;;5065411;28;20290;-80
2021/01/16 05:57:33;;;;;;;7.60;6.07;;;-1.00;99.90;;;;;;5062750;28;20780;-81
2021/01/16 06:00:01;;;;;;;8.00;5.00;;;-1.00;99.90;;;;;;5062729;28;20207;-80
2021/01/16 06:02:30;;;;;;;7.43;6.22;;;-1.20;99.90;;;;;;5061415;28;20681;-82
2021/01/16 06:04:58;;;;;;;7.85;6.28;;;-1.10;99.90;;;;;;5061120;28;20219;-81
2021/01/16 06:07:26;;;;;;;8.68;6.68;;;-1.20;99.90;;;;;;5061688;28;20522;-81
2021/01/16 06:09:53;;;;;;;14.23;6.60;;;-1.20;99.90;;;;;;5060992;28;20209;-80
2021/01/16 06:12:21;;;;;;;7.85;6.07;;;-1.20;99.90;;;;;;5059570;28;20203;-80
2021/01/16 06:14:49;;;;;;;9.07;6.22;;;-1.20;99.90;;;;;;5059189;28;20469;-80
2021/01/16 06:17:17;;;;;;;9.37;6.60;;;-1.20;99.90;;;;;;5059844;28;20455;-80
2021/01/16 06:19:45;;;;;;;8.20;6.32;;;-1.00;99.90;;;;;;5061365;28;20534;-80
2021/01/16 06:22:14;;;;;;;9.23;7.00;;;-1.00;99.90;;;;;;5062329;28;20235;-80
2021/01/16 06:24:46;;;;;;;10.90;8.07;;;-1.00;99.90;;;;;;5062693;28;20247;-79
2021/01/16 06:27:22;;;;;;;9.68;7.28;;;-1.00;99.90;;;;;;5062052;28;20202;-80
2021/01/16 06:29:57;;;;;;;10.43;6.93;;;-0.90;99.90;;;;;;5062715;28;20188;-80
2021/01/16 06:32:24;;;;;;;9.35;6.20;;;-0.90;99.90;;;;;;5062064;28;20190;-80
2021/01/16 06:35:05;;;;;;;9.73;6.78;;;-1.00;99.90;;;;;;5061598;28;20230;-80
2021/01/16 06:37:33;;;;;;;6.72;5.97;;;-0.90;99.90;;;;;;5065364;28;20276;-80
2021/01/16 06:39:59;;;;;;;9.52;6.97;;;-0.90;99.90;;;;;;5069744;28;20214;-80
2021/01/16 06:42:27;;;;;;;7.25;5.65;;;-1.00;99.90;;;;;;5069647;28;20203;-80
2021/01/16 06:45:04;;;;;;;8.50;6.60;;;-1.00;99.90;;;;;;5070410;28;20256;-80
2021/01/16 06:47:33;;;;;;;9.38;6.70;;;-1.00;99.90;;;;;;5071256;28;20186;-81
2021/01/16 06:50:00;;;;;;;8.73;6.40;;;-0.90;99.90;;;;;;5068767;28;20497;-80
2021/01/16 06:52:38;;;;;;;11.45;7.32;;;-0.90;99.90;;;;;;5067471;28;20210;-81
2021/01/16 06:55:06;;;;;;;10.40;7.15;;;-1.00;99.90;;;;;;5068256;28;20230;-81
2021/01/16 06:57:33;;;;;;;6.55;5.68;;;-0.90;99.90;;;;;;5065745;28;20258;-80
2021/01/16 07:00:01;;;;;;;6.50;5.80;;;-0.90;99.90;;;;;;5062849;28;20206;-81
2021/01/16 07:02:32;;;;;;;7.28;6.47;;;-0.90;99.90;;;;;;5062540;28;20234;-81
2021/01/16 07:05:00;;;;;;;9.27;7.05;;;-0.90;99.90;;;;;;5061914;28;20306;-79
2021/01/16 07:07:32;;;;;;;20.40;7.55;;;-0.90;99.90;;;;;;5062127;28;20195;-80
2021/01/16 07:10:01;;;;;;;9.10;7.13;;;-0.80;99.90;;;;;;5062952;28;20206;-81
2021/01/16 07:12:28;;;;;;;12.68;6.80;;;-0.80;99.90;;;;;;5061418;28;20230;-81
2021/01/16 07:14:54;;;;;;;10.25;6.10;;;-0.90;99.90;;;;;;5062127;28;20711;-80
2021/01/16 07:17:23;;;;;;;12.13;8.20;;;-0.80;99.90;;;;;;5060526;28;20497;-81
2021/01/16 07:19:50;;;;;;;11.07;7.80;;;-0.70;99.90;;;;;;5060224;28;20446;-81
2021/01/16 07:22:17;;;;;;;12.10;7.38;;;-0.70;99.90;;;;;;5059300;28;20248;-81
2021/01/16 07:24:45;;;;;;;10.27;7.55;;;-0.60;99.90;;;;;;5058632;28;20318;-80
2021/01/16 07:27:13;;;;;;;6.93;6.22;;;-0.60;99.90;;;;;;5059702;28;20213;-81
2021/01/16 07:29:41;;;;;;;7.53;6.38;;;-0.50;99.90;;;;;;5058846;28;20700;-81
2021/01/16 07:32:15;;;;;;;11.50;7.10;;;-0.60;99.90;;;;;;5061810;28;20671;-81
2021/01/16 07:34:45;;;;;;;8.65;6.93;;;-0.60;99.90;;;;;;5063771;28;20219;-80
2021/01/16 07:37:13;;;;;;;10.55;8.02;;;-0.50;99.90;;;;;;5064688;28;20206;-81
2021/01/16 07:39:41;;;;;;;11.32;7.30;;;-0.60;99.90;;;;;;5062224;28;20206;-82
2021/01/16 07:42:14;;;;;;;9.70;6.60;;;-0.70;99.90;;;;;;5059619;28;20698;-80
2021/01/16 07:44:45;;;;;;;12.63;8.02;;;-0.60;99.90;;;;;;5061424;28;20529;-80
2021/01/16 07:47:20;;;;;;;17.65;10.20;;;-0.70;99.90;;;;;;5060960;28;20203;-80
2021/01/16 07:49:55;;;;;;;11.48;7.60;;;-0.70;99.90;;;;;;5065195;28;20205;-79
2021/01/16 07:52:27;;;;;;;8.88;6.97;;;-0.70;99.90;;;;;;5075459;28;20262;-80
2021/01/16 07:55:07;;;;;;;13.82;7.25;;;-0.80;99.90;;;;;;5073262;28;20206;-79
2021/01/16 07:57:35;;;;;;;11.25;8.30;;;-0.70;99.90;;;;;;5072626;28;20451;-79
2021/01/16 08:00:06;;;;;;;11.00;7.47;;;-0.70;99.90;;;;;;5074233;28;20234;-80
2021/01/16 08:02:35;;;;;;;13.55;8.05;;;-0.70;99.90;;;;;;5074332;28;20179;-79
2021/01/16 08:05:20;;;;;;;9.20;7.20;;;-0.70;99.90;;;;;;5073093;28;20223;-80
2021/01/16 08:08:34;;;;;;;13.25;7.82;;;-0.60;99.90;;;;;;5073582;28;20183;-79
2021/01/16 08:11:04;;;;;;;10.55;8.63;;;-0.70;99.90;;;;;;5071235;28;20294;-79
2021/01/16 08:13:31;;;;;;;12.68;8.82;;;-0.70;99.90;;;;;;5069237;28;20713;-80
2021/01/16 08:16:03;;;;;;;12.27;8.40;;;-0.70;99.90;;;;;;5068724;28;20206;-81
2021/01/16 08:18:33;;;;;;;12.38;8.40;;;-0.70;99.90;;;;;;5067413;28;20454;-80
2021/01/16 08:21:07;;;;;;;13.35;9.50;;;-0.70;99.90;;;;;;5063748;28;20199;-78
2021/01/16 08:23:46;;;;;;;13.23;9.20;;;-0.70;99.90;;;;;;5059186;28;20493;-79
2021/01/16 08:26:13;;;;;;;12.05;7.82;;;-0.80;99.90;;;;;;5059326;28;20191;-81
2021/01/16 08:28:44;;;;;;;13.13;8.77;;;-0.80;99.90;;;;;;5060244;28;20265;-80
2021/01/16 08:31:25;;;;;;;12.35;8.98;;;-0.80;99.90;;;;;;5059526;28;20662;-80
2021/01/16 08:33:51;;;;;;;10.65;8.57;;;-0.80;99.90;;;;;;5059848;28;20291;-79
2021/01/16 08:36:20;;;;;;;9.70;7.03;;;-0.80;99.90;;;;;;5060909;28;20210;-80
2021/01/16 08:38:48;;;;;;;10.68;7.95;;;-0.80;99.90;;;;;;5060363;28;20699;-80
2021/01/16 08:41:21;;;;;;;13.10;9.00;;;-0.90;99.90;;;;;;5059617;28;20203;-80
2021/01/16 08:43:56;;;;;;;13.52;8.68;;;-0.80;99.90;;;;;;5058871;28;20223;-80
2021/01/16 08:46:32;;;;;;;13.00;9.00;;;-0.80;99.90;;;;;;5069529;28;20257;-79
2021/01/16 08:49:01;;;;;;;12.02;9.32;;;-0.70;99.90;;;;;;5073091;28;20201;-79
2021/01/16 08:51:29;;;;;;;10.98;8.90;;;-0.70;99.90;;;;;;5076189;28;20233;-80
2021/01/16 08:54:10;;;;;;;13.77;9.50;;;-0.50;99.90;;;;;;5074936;28;20271;-80
2021/01/16 08:56:36;;;;;;;14.18;8.52;;;-0.70;99.90;;;;;;5073513;28;20198;-80
2021/01/16 08:59:19;;;;;;;13.27;8.40;;;-0.70;99.90;;;;;;5075665;28;20230;-80
2021/01/16 09:01:46;;;;;;;15.32;8.82;;;-0.70;99.90;;;;;;5078959;28;20175;-80
2021/01/16 09:04:17;;;;;;;13.05;9.43;;;-0.70;99.90;;;;;;5075678;28;20218;-80
2021/01/16 09:06:44;;;;;;;11.38;9.07;;;-0.60;99.90;;;;;;5074387;28;20487;-80
2021/01/16 09:09:13;;;;;;;10.80;8.65;;;-0.60;99.90;;;;;;5065164;28;20203;-80
2021/01/16 09:11:39;;;;;;;12.88;9.10;;;-0.70;99.90;;;;;;5065613;28;20203;-80
2021/01/16 09:14:06;;;;;;;11.52;7.95;;;-0.60;99.90;;;;;;5064499;28;20310;-80
2021/01/16 09:16:35;;;;;;;10.52;8.07;;;-0.60;99.90;;;;;;5062967;28;20292;-81
2021/01/16 09:19:03;;;;;;;14.18;9.45;;;-0.60;99.90;;;;;;5063633;28;20231;-80
2021/01/16 09:21:29;;;;;;;12.75;9.00;;;-0.60;99.90;;;;;;5067340;28;20261;-78
2021/01/16 09:23:56;;;;;;;10.13;8.18;;;-0.50;99.90;;;;;;5068156;28;20355;-80
2021/01/16 09:26:25;;;;;;;13.20;8.75;;;-0.40;99.90;;;;;;5061169;28;20613;-79
2021/01/16 09:28:52;;;;;;;13.02;9.05;;;-0.50;99.90;;;;;;5061324;28;20618;-80
2021/01/16 09:31:27;;;;;;;10.90;7.13;;;-0.40;99.90;;;;;;5062499;28;20289;-80
2021/01/16 09:33:57;;;;;;;13.05;8.45;;;-0.40;99.90;;;;;;5064228;28;20219;-80
2021/01/16 09:36:44;;;;;;;12.20;9.05;;;-0.40;99.90;;;;;;5063151;28;20249;-80
2021/01/16 09:39:17;;;;;;;14.27;10.00;;;-0.40;99.90;;;;;;5062162;28;20207;-80
2021/01/16 09:41:45;;;;;;;12.02;8.40;;;-0.30;99.90;;;;;;5061327;28;20630;-81
2021/01/16 09:44:11;;;;;;;14.25;9.45;;;-0.20;99.90;;;;;;5066064;28;20279;-80
2021/01/16 09:46:40;;;;;;;13.43;9.55;;;-0.20;99.90;;;;;;5068613;28;20617;-79
2021/01/16 09:49:09;;;;;;;13.50;9.57;;;-0.30;99.90;;;;;;5064419;28;20207;-81
2021/01/16 09:51:37;;;;;;;14.15;10.30;;;-0.20;99.90;;;;;;5062289;28;20211;-80
2021/01/16 09:54:11;;;;;;;13.18;9.45;;;-0.20;99.90;;;;;;5090651;23;20222;-80
2021/01/16 09:56:46;;;;;;;15.02;8.50;;;-0.30;99.90;;;;;;5100164;28;20215;-82
2021/01/16 09:59:21;;;;;;;12.00;8.32;;;-0.30;99.90;;;;;;5099812;28;20221;-82
2021/01/16 10:02:09;;;;;;;10.00;8.05;;;-0.30;99.90;;;;;;5101375;28;20246;-81
2021/01/16 10:04:40;;;;;;;12.02;7.65;;;-0.30;99.90;;;;;;5092196;28;20228;-82
2021/01/16 10:07:08;;;;;;;14.45;9.52;;;-0.20;99.90;;;;;;5088596;28;20245;-83
2021/01/16 10:09:42;;;;;;;11.88;8.15;;;-0.20;99.90;;;;;;5080211;28;20221;-82
2021/01/16 10:12:10;;;;;;;12.13;9.25;;;-0.20;99.90;;;;;;5079276;28;20183;-82
2021/01/16 10:14:36;;;;;;;11.43;7.45;;;-0.10;99.90;;;;;;5080369;28;20232;-82
2021/01/16 10:17:11;;;;;;;14.05;9.98;;;-0.10;99.90;;;;;;5080714;28;20285;-81
2021/01/16 10:19:39;;;;;;;11.50;8.00;;;0.00;99.90;;;;;;5079200;28;20258;-82
2021/01/16 10:22:10;;;;;;;11.30;7.95;;;0.00;99.90;;;;;;5080399;28;20746;-82
2021/01/16 10:24:44;;;;;;;12.32;8.35;;;0.00;99.90;;;;;;5078882;28;20236;-81
2021/01/16 10:27:11;;;;;;;9.50;7.18;;;-0.20;99.90;;;;;;5077767;28;20239;-81
2021/01/16 10:29:40;;;;;;;19.80;7.88;;;-0.20;99.90;;;;;;5079494;28;20198;-82
2021/01/16 10:32:19;;;;;;;12.32;8.90;;;-0.20;99.90;;;;;;5078647;28;20213;-81
2021/01/16 10:34:47;;;;;;;10.02;8.02;;;-0.30;99.90;;;;;;5080048;28;20222;-81
2021/01/16 10:37:14;;;;;;;10.10;7.70;;;-0.20;99.90;;;;;;5081634;28;20213;-83
2021/01/16 10:39:41;;;;;;;10.48;7.25;;;0.10;99.90;;;;;;5080568;28;20198;-82
2021/01/16 10:42:14;;;;;;;10.88;8.35;;;0.00;99.90;;;;;;5079415;28;20202;-82
2021/01/16 10:44:41;;;;;;;10.32;7.13;;;0.00;99.90;;;;;;5079595;28;20285;-81
2021/01/16 10:47:31;;;;;;;11.50;8.05;;;0.00;99.90;;;;;;5080012;28;20225;-82
2021/01/16 10:50:04;;;;;;;10.98;7.68;;;0.10;99.90;;;;;;5079399;28;20273;-82
2021/01/16 10:52:31;;;;;;;9.00;7.10;;;0.10;99.90;;;;;;5079953;28;20179;-82
2021/01/16 10:54:58;;;;;;;10.15;7.93;;;0.20;99.90;;;;;;5079689;28;20234;-82
2021/01/16 10:57:38;;;;;;;10.00;7.50;;;0.20;99.90;;;;;;5079916;28;20229;-81
2021/01/16 11:00:11;;;;;;;9.93;7.97;;;0.00;99.90;;;;;;5079850;28;20218;-82
2021/01/16 11:02:38;;;;;;;11.80;7.82;;;-0.20;99.90;;;;;;5079646;28;20191;-82
2021/01/16 11:05:26;;;;;;;12.18;8.48;;;-0.20;99.90;;;;;;5080782;28;20361;-81
2021/01/16 11:07:59;;;;;;;14.35;9.48;;;-0.10;99.90;;;;;;5082120;28;20586;-82
2021/01/16 11:10:31;;;;;;;14.73;9.80;;;0.20;99.90;;;;;;5083408;28;20206;-79
2021/01/16 11:13:28;;;;;;;10.45;8.13;;;0.20;99.90;;;;;;5083915;28;20209;-79
2021/01/16 11:15:56;;;;;;;15.00;8.05;;;0.20;99.90;;;;;;5084110;28;20230;-79
2021/01/16 11:18:30;;;;;;;15.02;8.95;;;0.30;99.90;;;;;;5083650;28;20278;-79
2021/01/16 11:21:00;;;;;;;12.40;9.35;;;0.30;99.90;;;;;;5077859;28;20193;-81
2021/01/16 11:23:34;;;;;;;9.82;8.52;;;0.30;99.90;;;;;;5077314;28;20663;-81
2021/01/16 11:26:07;;;;;;;12.57;8.10;;;0.30;99.90;;;;;;5077571;28;20222;-81
2021/01/16 11:28:48;;;;;;;14.90;8.50;;;0.20;99.90;;;;;;5076985;28;20183;-81
2021/01/16 11:31:28;;;;;;;9.38;7.40;;;0.30;99.90;;;;;;5077604;28;20274;-82
2021/01/16 11:34:20;;;;;;;12.30;8.23;;;0.40;99.90;;;;;;5077358;28;20622;-83
2021/01/16 11:37:04;;;;;;;12.43;8.13;;;0.40;99.90;;;;;;5078376;28;20201;-81
2021/01/16 11:39:44;;;;;;;11.68;8.20;;;0.40;99.90;;;;;;5077767;28;20218;-82
2021/01/16 11:42:13;;;;;;;11.15;7.60;;;0.50;99.90;;;;;;5077738;28;20606;-81
2021/01/16 11:44:59;;;;;;;9.43;6.90;;;0.40;99.90;;;;;;5084299;28;20415;-80
2021/01/16 11:47:27;;;;;;;9.05;7.68;;;0.30;99.90;;;;;;5093743;28;20429;-79
2021/01/16 11:49:54;;;;;;;9.43;7.60;;;0.00;99.90;;;;;;5082466;28;20245;-82
2021/01/16 11:52:22;;;;;;;17.05;8.52;;;-0.20;99.90;;;;;;5080560;28;20203;-80
2021/01/16 11:54:49;;;;;;;12.80;8.27;;;0.10;99.90;;;;;;5088135;28;20268;-80
2021/01/16 11:57:19;;;;;;;11.05;8.30;;;0.00;99.90;;;;;;5091643;28;20206;-81
2021/01/16 11:59:49;;;;;;;11.10;8.55;;;0.20;99.90;;;;;;5092125;28;20442;-82
2021/01/16 12:02:23;;;;;;;12.85;8.18;;;0.10;99.90;;;;;;5091557;28;20210;-80
2021/01/16 12:04:51;;;;;;;12.02;7.72;;;0.20;99.90;;;;;;5092105;28;20257;-81
2021/01/16 12:07:27;;;;;;;9.10;6.60;;;0.40;99.90;;;;;;5092220;28;20289;-80
2021/01/16 12:10:18;;;;;;;11.93;8.45;;;0.30;99.90;;;;;;5089946;28;20466;-82
2021/01/16 12:12:45;;;;;;;10.50;7.30;;;0.30;99.90;;;;;;5093438;28;20206;-82
2021/01/16 12:15:19;;;;;;;9.45;7.90;;;0.40;99.90;;;;;;5091762;28;20426;-82
2021/01/16 12:17:48;;;;;;;9.40;7.20;;;0.40;99.90;;;;;;5091960;28;20319;-81
2021/01/16 12:20:15;;;;;;;11.93;8.55;;;0.40;99.90;;;;;;5087835;28;20287;-82
2021/01/16 12:22:43;;;;;;;8.93;7.78;;;0.40;99.90;;;;;;5084523;28;20262;-83
2021/01/16 12:25:11;;;;;;;11.38;8.00;;;0.30;99.90;;;;;;5075852;28;20218;-82
2021/01/16 12:27:48;;;;;;;10.25;7.13;;;0.40;99.90;;;;;;5076359;28;20289;-82
2021/01/16 12:30:15;;;;;;;10.65;7.90;;;0.30;99.90;;;;;;5076072;28;20259;-81
2021/01/16 12:32:42;;;;;;;8.75;7.28;;;0.20;99.90;;;;;;5076947;28;20206;-82
2021/01/16 12:35:09;;;;;;;8.55;6.93;;;0.00;99.90;;;;;;5079095;28;20225;-81
2021/01/16 12:37:37;;;;;;;10.00;7.50;;;0.30;99.90;;;;;;5082257;28;20210;-82
2021/01/16 12:40:06;;;;;;;8.60;7.45;;;0.30;99.90;;;;;;5082542;28;20216;-83
2021/01/16 12:42:33;;;;;;;7.75;6.35;;;0.20;99.90;;;;;;5083929;28;20197;-81
2021/01/16 12:45:08;;;;;;;11.82;7.03;;;0.20;99.90;;;;;;5085409;28;20226;-81
2021/01/16 12:47:37;;;;;;;9.05;6.82;;;0.40;99.90;;;;;;5083677;28;20223;-82
2021/01/16 12:52:47;;;;;;;7.85;6.40;;;0.50;99.90;;;;;;5082246;28;20263;-81
2021/01/16 12:55:31;;;;;;;9.90;7.18;;;0.50;99.90;;;;;;5083778;28;20269;-81
2021/01/16 12:58:01;;;;;;;8.77;6.05;;;0.40;99.90;;;;;;5083306;28;20222;-81
2021/01/16 13:00:29;;;;;;;11.60;7.82;;;0.10;99.90;;;;;;5083306;28;20202;-82
2021/01/16 13:02:58;;;;;;;11.48;6.80;;;0.20;99.90;;;;;;5083275;28;20389;-80